Time;durP1;ratioP1;P1;durP2;ratioP2;P2;SDS_P1;SDS_P2;PMS_P1;PMS_P2;Temp;Humidity;BMP_temperature;BMP_pressure;BME280_temperature;BME280_humidity;BME280_pressure;Samples;Min_cycle;Max_cycle;Signal;HPM_P1;HPM_P2
2022/07/20 00:00:45;;;;;;;10.17;4.03;;;18.80;99.90;;;;;;5112119;28;20221;-76
2022/07/20 00:03:13;;;;;;;8.77;3.63;;;18.70;99.90;;;;;;5111292;28;20197;-76
2022/07/20 00:05:41;;;;;;;10.83;3.90;;;18.70;99.90;;;;;;5111824;28;20634;-76
2022/07/20 00:08:08;;;;;;;10.57;3.43;;;18.80;99.90;;;;;;5111666;28;20233;-76
2022/07/20 00:13:22;;;;;;;9.17;3.53;;;18.80;99.90;;;;;;5110894;28;20220;-76
2022/07/20 00:15:49;;;;;;;11.03;3.73;;;18.80;99.90;;;;;;5112220;28;20733;-76
2022/07/20 00:18:17;;;;;;;11.20;3.70;;;18.80;99.90;;;;;;5111976;28;20225;-76
2022/07/20 00:20:45;;;;;;;14.70;4.50;;;18.90;99.90;;;;;;5111803;28;20653;-76
2022/07/20 00:23:12;;;;;;;9.40;3.70;;;18.90;99.90;;;;;;5111581;28;20673;-76
2022/07/20 00:25:40;;;;;;;11.60;3.67;;;18.90;99.90;;;;;;5111759;28;20198;-76
2022/07/20 00:28:07;;;;;;;13.80;4.60;;;18.90;99.90;;;;;;5111662;28;20633;-76
2022/07/20 00:30:34;;;;;;;8.50;3.30;;;18.90;99.90;;;;;;5115230;28;20240;-76
2022/07/20 00:33:01;;;;;;;10.97;4.03;;;18.90;99.90;;;;;;5114764;28;20253;-75
2022/07/20 00:35:28;;;;;;;10.90;3.90;;;19.00;99.90;;;;;;5115461;28;20280;-76
2022/07/20 00:37:54;;;;;;;11.73;3.90;;;19.00;99.90;;;;;;5115822;28;20233;-75
2022/07/20 00:40:21;;;;;;;10.00;4.20;;;19.00;99.90;;;;;;5114272;28;20254;-76
2022/07/20 00:42:50;;;;;;;9.87;3.80;;;19.00;99.90;;;;;;5114856;28;20225;-76
2022/07/20 00:45:17;;;;;;;8.53;3.73;;;19.00;99.90;;;;;;5115746;28;20229;-76
2022/07/20 00:47:44;;;;;;;8.97;3.90;;;19.10;99.90;;;;;;5114917;28;20759;-75
2022/07/20 00:50:11;;;;;;;11.97;3.60;;;19.10;99.90;;;;;;5109998;28;20244;-75
2022/07/20 00:52:39;;;;;;;9.47;3.83;;;19.00;99.90;;;;;;5114615;28;20278;-76
2022/07/20 00:55:08;;;;;;;7.53;3.70;;;19.10;99.90;;;;;;5114721;28;20221;-75
2022/07/20 00:57:35;;;;;;;10.53;3.90;;;19.10;99.90;;;;;;5115046;28;20229;-75
2022/07/20 01:00:05;;;;;;;11.97;4.10;;;19.10;99.90;;;;;;5115248;28;20237;-75
2022/07/20 01:02:33;;;;;;;10.53;3.60;;;19.10;99.90;;;;;;5113971;28;20209;-75
2022/07/20 01:05:00;;;;;;;11.90;3.90;;;19.10;99.90;;;;;;5115017;28;20217;-75
2022/07/20 01:07:27;;;;;;;7.20;3.63;;;19.10;99.90;;;;;;5113991;28;20549;-75
2022/07/20 01:09:54;;;;;;;11.43;3.40;;;19.10;99.90;;;;;;5114446;28;20287;-75
2022/07/20 01:12:21;;;;;;;13.07;3.83;;;19.10;99.90;;;;;;5115160;28;20853;-75
2022/07/20 01:14:54;;;;;;;7.17;3.13;;;19.10;99.90;;;;;;5114126;28;20317;-75
2022/07/20 01:17:22;;;;;;;10.60;3.33;;;19.10;99.90;;;;;;5115145;28;20242;-75
2022/07/20 01:19:49;;;;;;;13.30;3.37;;;19.10;99.90;;;;;;5114351;28;20318;-75
2022/07/20 01:22:17;;;;;;;9.73;3.60;;;19.10;99.90;;;;;;5114375;28;20281;-75
2022/07/20 01:24:44;;;;;;;9.87;3.43;;;19.10;99.90;;;;;;5114234;28;20280;-75
2022/07/20 01:27:11;;;;;;;12.00;3.40;;;19.10;99.90;;;;;;5114463;28;20230;-75
2022/07/20 01:29:38;;;;;;;11.53;3.60;;;19.10;99.90;;;;;;5114561;28;20233;-74
2022/07/20 01:32:06;;;;;;;12.17;3.40;;;19.00;99.90;;;;;;5114106;28;20233;-74
2022/07/20 01:34:32;;;;;;;15.57;3.33;;;19.00;99.90;;;;;;5114578;28;20302;-75
2022/07/20 01:37:00;;;;;;;11.73;3.27;;;19.00;99.90;;;;;;5110399;28;20198;-75
2022/07/20 01:39:28;;;;;;;15.03;3.83;;;19.00;99.90;;;;;;5108439;28;20229;-75
2022/07/20 01:41:55;;;;;;;12.27;4.40;;;18.90;99.90;;;;;;5114073;28;20614;-75
2022/07/20 01:44:23;;;;;;;12.03;3.87;;;18.90;99.90;;;;;;5114119;28;20225;-75
2022/07/20 01:46:50;;;;;;;9.87;3.57;;;18.90;99.90;;;;;;5114749;28;20221;-75
2022/07/20 01:49:18;;;;;;;10.27;3.83;;;18.80;99.90;;;;;;5113948;28;20280;-75
2022/07/20 01:51:45;;;;;;;11.03;3.70;;;18.80;99.90;;;;;;5114105;28;20243;-75
2022/07/20 01:54:12;;;;;;;11.17;3.87;;;18.80;99.90;;;;;;5114229;28;20249;-75
2022/07/20 01:56:43;;;;;;;10.63;3.40;;;18.80;99.90;;;;;;5113511;28;20237;-75
2022/07/20 01:59:10;;;;;;;7.70;3.30;;;18.80;99.90;;;;;;5114477;28;20197;-75
2022/07/20 02:01:37;;;;;;;9.80;3.70;;;18.70;99.90;;;;;;5113456;28;20285;-75
2022/07/20 02:04:05;;;;;;;12.33;3.70;;;18.70;99.90;;;;;;5114194;28;20198;-75
2022/07/20 02:06:32;;;;;;;7.77;3.33;;;18.60;99.90;;;;;;5113798;28;20632;-75
2022/07/20 02:08:59;;;;;;;11.77;3.30;;;18.50;99.90;;;;;;5113622;28;20237;-75
2022/07/20 02:11:26;;;;;;;10.27;3.80;;;18.50;99.90;;;;;;5114699;28;20285;-75
2022/07/20 02:13:54;;;;;;;9.90;3.83;;;18.40;99.90;;;;;;5112681;28;20644;-75
2022/07/20 02:16:21;;;;;;;9.13;3.60;;;18.40;99.90;;;;;;5113790;28;20720;-75
2022/07/20 02:18:50;;;;;;;13.33;3.70;;;18.40;99.90;;;;;;5113665;28;20237;-75
2022/07/20 02:21:18;;;;;;;10.53;3.70;;;18.40;99.90;;;;;;5113683;28;20236;-75
2022/07/20 02:23:46;;;;;;;10.67;3.97;;;18.30;99.90;;;;;;5103957;28;20233;-75
2022/07/20 02:26:13;;;;;;;7.07;3.80;;;18.30;99.90;;;;;;5101287;28;20238;-75
2022/07/20 02:28:40;;;;;;;11.67;3.70;;;18.30;99.90;;;;;;5113746;28;20229;-75
2022/07/20 02:31:09;;;;;;;9.23;3.60;;;18.30;99.90;;;;;;5111692;28;20237;-75
2022/07/20 02:33:36;;;;;;;9.13;3.70;;;18.40;99.90;;;;;;5113435;28;20198;-75
2022/07/20 02:36:03;;;;;;;10.03;3.87;;;18.40;99.90;;;;;;5112260;27;20193;-76
2022/07/20 02:38:30;;;;;;;11.13;3.77;;;18.50;99.90;;;;;;5113220;28;20255;-75
2022/07/20 02:40:57;;;;;;;11.43;4.07;;;18.50;99.90;;;;;;5113152;28;20288;-75
2022/07/20 02:43:24;;;;;;;7.77;3.50;;;18.50;99.90;;;;;;5113122;28;20229;-75
2022/07/20 02:45:51;;;;;;;10.83;4.20;;;18.50;99.90;;;;;;5113040;28;20537;-75
2022/07/20 02:48:19;;;;;;;14.47;4.33;;;18.60;99.90;;;;;;5112429;28;20284;-75
2022/07/20 02:50:46;;;;;;;10.97;4.00;;;18.60;99.90;;;;;;5112366;28;20308;-75
2022/07/20 02:53:15;;;;;;;10.43;4.20;;;18.70;99.90;;;;;;5111554;28;20251;-74
2022/07/20 02:55:43;;;;;;;10.53;3.80;;;18.70;99.90;;;;;;5113786;28;20304;-74
2022/07/20 02:58:10;;;;;;;10.67;3.87;;;18.70;99.90;;;;;;5113855;28;20201;-75
2022/07/20 03:00:38;;;;;;;11.80;4.17;;;18.70;99.90;;;;;;5098351;28;20232;-75
2022/07/20 03:03:05;;;;;;;10.40;4.03;;;18.70;99.90;;;;;;5113190;28;20266;-75
2022/07/20 03:05:34;;;;;;;6.77;4.13;;;18.80;99.90;;;;;;5111901;28;20277;-75
2022/07/20 03:08:01;;;;;;;8.43;3.97;;;18.80;99.90;;;;;;5113197;28;20229;-75
2022/07/20 03:10:28;;;;;;;8.57;3.80;;;18.90;99.90;;;;;;5112444;28;20298;-74
2022/07/20 03:12:55;;;;;;;12.20;4.37;;;18.90;99.90;;;;;;5113001;28;20351;-75
2022/07/20 03:15:22;;;;;;;10.63;3.97;;;18.90;99.90;;;;;;5112293;28;20658;-75
2022/07/20 03:17:51;;;;;;;11.13;4.07;;;18.90;99.90;;;;;;5112319;28;20280;-75
2022/07/20 03:20:20;;;;;;;10.13;4.13;;;18.90;99.90;;;;;;5111731;28;20285;-73
2022/07/20 03:22:48;;;;;;;11.55;4.38;;;18.80;99.90;;;;;;5111774;28;20240;-75
2022/07/20 03:25:15;;;;;;;9.83;4.40;;;18.70;99.90;;;;;;5111770;28;20285;-75
2022/07/20 03:27:42;;;;;;;11.00;4.30;;;18.60;99.90;;;;;;5111553;28;20236;-75
2022/07/20 03:30:10;;;;;;;7.93;4.20;;;18.60;99.90;;;;;;5112516;28;20229;-75
2022/07/20 03:32:37;;;;;;;12.27;4.73;;;18.60;99.90;;;;;;5112143;28;20667;-75
2022/07/20 03:35:05;;;;;;;11.43;4.50;;;18.60;99.90;;;;;;5111600;28;20301;-75
2022/07/20 03:37:32;;;;;;;11.73;4.97;;;18.50;99.90;;;;;;5112332;28;20197;-75
2022/07/20 03:40:01;;;;;;;11.07;4.83;;;18.40;99.90;;;;;;5110570;28;20229;-75
2022/07/20 03:42:28;;;;;;;9.63;4.50;;;18.40;99.90;;;;;;5107396;28;20817;-75
2022/07/20 03:44:54;;;;;;;10.27;5.10;;;18.40;99.90;;;;;;5111459;28;20225;-75
2022/07/20 03:47:21;;;;;;;12.77;5.07;;;18.40;99.90;;;;;;5111880;28;20229;-75
2022/07/20 03:49:48;;;;;;;11.63;5.07;;;18.20;99.90;;;;;;5111621;28;20233;-75
2022/07/20 03:52:15;;;;;;;10.60;5.17;;;18.20;99.90;;;;;;5112261;28;20233;-75
2022/07/20 03:54:42;;;;;;;9.70;5.13;;;18.20;99.90;;;;;;5112120;28;20264;-75
2022/07/20 03:57:10;;;;;;;10.60;4.87;;;18.10;99.90;;;;;;5111735;28;20736;-75
2022/07/20 03:59:38;;;;;;;12.47;5.40;;;18.10;99.90;;;;;;5112640;28;20734;-75
2022/07/20 04:02:05;;;;;;;12.53;5.27;;;18.10;99.90;;;;;;5110923;28;20263;-75
2022/07/20 04:04:32;;;;;;;11.60;5.20;;;18.00;99.90;;;;;;5113646;28;20221;-75
2022/07/20 04:06:59;;;;;;;11.53;5.27;;;18.00;99.90;;;;;;5116086;28;20284;-75
2022/07/20 04:09:45;;;;;;;11.00;5.30;;;18.10;99.90;;;;;;5116578;28;20233;-75
2022/07/20 04:12:16;;;;;;;11.17;5.23;;;18.20;99.90;;;;;;5115835;28;20197;-75
2022/07/20 04:14:44;;;;;;;11.00;5.37;;;18.30;99.90;;;;;;5116014;28;20300;-75
2022/07/20 04:17:11;;;;;;;10.53;5.57;;;18.20;99.90;;;;;;5115901;28;20288;-75
2022/07/20 04:19:38;;;;;;;10.13;5.87;;;18.20;99.90;;;;;;5115344;28;20255;-75
2022/07/20 04:22:05;;;;;;;7.80;5.17;;;18.20;99.90;;;;;;5116219;28;20221;-75
2022/07/20 04:24:32;;;;;;;16.17;5.73;;;18.10;99.90;;;;;;5115082;28;20280;-75
2022/07/20 04:26:59;;;;;;;10.10;4.73;;;18.10;99.90;;;;;;5116129;28;20243;-75
2022/07/20 04:29:28;;;;;;;13.43;5.70;;;18.10;99.90;;;;;;5115344;28;20645;-75
2022/07/20 04:31:55;;;;;;;7.77;5.43;;;18.10;99.90;;;;;;5115854;28;20197;-75
2022/07/20 04:34:22;;;;;;;12.97;5.87;;;18.10;99.90;;;;;;5115116;28;20304;-75
2022/07/20 04:36:49;;;;;;;11.60;6.03;;;18.10;99.90;;;;;;5113100;28;20225;-75
2022/07/20 04:39:16;;;;;;;14.57;6.00;;;18.10;99.90;;;;;;5115823;28;20718;-75
2022/07/20 04:41:43;;;;;;;9.10;5.40;;;18.00;99.90;;;;;;5115296;28;20292;-75
2022/07/20 04:44:10;;;;;;;8.93;5.40;;;17.90;99.90;;;;;;5115866;28;20665;-75
2022/07/20 04:46:38;;;;;;;14.60;5.50;;;17.80;99.90;;;;;;5114913;28;20233;-74
2022/07/20 04:49:07;;;;;;;14.07;5.30;;;17.60;99.90;;;;;;5115046;28;20281;-74
2022/07/20 04:51:34;;;;;;;7.47;3.53;;;17.60;99.90;;;;;;5108700;28;20625;-75
2022/07/20 04:54:01;;;;;;;6.33;4.10;;;17.60;99.90;;;;;;5115334;28;20285;-75
2022/07/20 04:56:28;;;;;;;7.23;4.50;;;17.60;99.90;;;;;;5115158;28;20312;-74
2022/07/20 04:58:55;;;;;;;6.17;3.97;;;17.80;99.90;;;;;;5115229;28;20233;-75
2022/07/20 05:01:23;;;;;;;6.53;5.30;;;17.70;99.90;;;;;;5115383;28;20205;-74
2022/07/20 05:03:52;;;;;;;8.80;5.40;;;17.60;99.90;;;;;;5115043;28;20230;-75
2022/07/20 05:06:20;;;;;;;8.00;4.43;;;17.60;99.90;;;;;;5114803;28;20633;-74
2022/07/20 05:08:46;;;;;;;6.87;3.93;;;17.60;99.90;;;;;;5115398;28;20231;-74
2022/07/20 05:11:14;;;;;;;6.37;4.70;;;17.60;99.90;;;;;;5114751;28;20232;-74
2022/07/20 05:13:41;;;;;;;7.53;5.10;;;17.70;99.90;;;;;;5115549;28;20229;-75
2022/07/20 05:16:09;;;;;;;7.80;5.40;;;17.70;99.90;;;;;;5113896;28;20304;-75
2022/07/20 05:18:36;;;;;;;8.20;5.67;;;17.70;99.90;;;;;;5114467;28;20691;-75
2022/07/20 05:21:05;;;;;;;8.57;5.50;;;17.70;99.90;;;;;;5113928;28;20240;-75
2022/07/20 05:23:32;;;;;;;9.07;5.87;;;17.70;99.90;;;;;;5114647;28;20274;-75
2022/07/20 05:25:59;;;;;;;9.43;6.10;;;17.80;99.90;;;;;;5114309;28;20722;-75
2022/07/20 05:28:26;;;;;;;7.27;5.80;;;18.00;99.90;;;;;;5114177;28;20244;-74
2022/07/20 05:30:53;;;;;;;10.50;5.53;;;18.10;99.90;;;;;;5113868;28;20285;-75
2022/07/20 05:33:21;;;;;;;10.87;6.73;;;18.20;99.90;;;;;;5114588;28;20233;-74
2022/07/20 05:35:49;;;;;;;9.03;6.10;;;18.30;99.90;;;;;;5114275;28;20290;-74
2022/07/20 05:38:19;;;;;;;9.70;5.30;;;18.30;99.90;;;;;;5110714;28;20193;-74
2022/07/20 05:40:46;;;;;;;7.53;4.67;;;18.20;99.90;;;;;;5114022;28;20244;-75
2022/07/20 05:43:13;;;;;;;9.13;4.70;;;18.10;99.90;;;;;;5114527;28;20209;-74
2022/07/20 05:45:40;;;;;;;8.03;5.10;;;18.30;99.90;;;;;;5113197;27;20237;-74
2022/07/20 05:48:10;;;;;;;7.17;4.93;;;18.20;99.90;;;;;;5114897;28;20284;-74
2022/07/20 05:50:39;;;;;;;6.70;4.87;;;18.20;99.90;;;;;;5111628;28;20222;-74
2022/07/20 05:53:06;;;;;;;6.90;4.97;;;18.20;99.90;;;;;;5108985;27;20201;-74
2022/07/20 05:55:35;;;;;;;8.27;4.87;;;18.10;99.90;;;;;;5115871;27;20241;-73
2022/07/20 05:58:04;;;;;;;9.97;4.90;;;18.20;99.90;;;;;;5115971;27;20197;-73
2022/07/20 06:00:32;;;;;;;7.00;4.70;;;18.10;99.90;;;;;;5115508;27;20701;-73
2022/07/20 06:03:00;;;;;;;7.67;4.97;;;18.10;99.90;;;;;;5112596;27;20259;-73
2022/07/20 06:05:27;;;;;;;8.50;4.80;;;18.30;99.90;;;;;;5113386;28;20221;-73
2022/07/20 06:07:55;;;;;;;7.40;5.27;;;18.30;99.90;;;;;;5112667;28;20248;-73
2022/07/20 06:10:22;;;;;;;10.73;5.37;;;18.20;99.90;;;;;;5115726;27;20625;-73
2022/07/20 06:12:50;;;;;;;10.33;4.77;;;18.30;99.90;;;;;;5113351;28;20747;-73
2022/07/20 06:15:17;;;;;;;8.80;4.80;;;18.20;99.90;;;;;;5113299;28;20309;-74
2022/07/20 06:17:44;;;;;;;8.27;4.60;;;18.30;99.90;;;;;;5113487;28;20229;-74
2022/07/20 06:20:13;;;;;;;7.13;4.60;;;18.30;99.90;;;;;;5113622;28;20276;-73
2022/07/20 06:22:41;;;;;;;7.27;4.80;;;18.20;99.90;;;;;;5113517;28;20262;-73
2022/07/20 06:25:10;;;;;;;9.43;4.87;;;18.40;99.90;;;;;;5113146;28;20240;-73
2022/07/20 06:27:37;;;;;;;8.43;4.80;;;18.30;99.90;;;;;;5114361;28;20193;-73
2022/07/20 06:30:08;;;;;;;7.67;5.40;;;18.40;99.90;;;;;;5112147;28;20288;-74
2022/07/20 06:32:35;;;;;;;7.97;5.10;;;18.60;99.90;;;;;;5112989;28;20279;-73
2022/07/20 06:35:03;;;;;;;7.60;5.17;;;18.70;99.90;;;;;;5112092;28;20305;-74
2022/07/20 06:37:30;;;;;;;7.87;4.97;;;18.70;99.90;;;;;;5104680;28;20289;-73
2022/07/20 06:39:57;;;;;;;8.10;5.13;;;18.60;99.90;;;;;;5112924;28;20224;-73
2022/07/20 06:42:24;;;;;;;9.30;5.00;;;18.70;99.90;;;;;;5112342;28;20236;-74
2022/07/20 06:44:51;;;;;;;7.70;5.10;;;18.70;99.90;;;;;;5112791;28;20284;-73
2022/07/20 06:47:19;;;;;;;8.55;5.55;;;18.70;99.90;;;;;;5112618;28;20248;-73
2022/07/20 06:49:46;;;;;;;8.00;5.10;;;18.70;99.90;;;;;;5113338;28;20631;-74
2022/07/20 06:52:13;;;;;;;7.93;4.97;;;18.80;99.90;;;;;;5112664;28;20276;-73
2022/07/20 06:54:40;;;;;;;11.02;4.93;;;18.90;99.90;;;;;;5111687;28;20704;-73
2022/07/20 06:57:07;;;;;;;10.00;5.10;;;19.00;99.90;;;;;;5112386;28;20302;-73
2022/07/20 06:59:37;;;;;;;7.95;5.28;;;19.10;99.90;;;;;;5111840;28;20631;-74
2022/07/20 07:02:04;;;;;;;9.00;4.80;;;19.10;99.90;;;;;;5119034;27;20197;-73
2022/07/20 07:04:32;;;;;;;9.38;5.40;;;19.10;99.90;;;;;;5112450;28;20229;-73
2022/07/20 07:06:59;;;;;;;7.78;5.15;;;19.20;99.90;;;;;;5111838;28;20266;-73
2022/07/20 07:09:26;;;;;;;9.00;5.07;;;19.20;99.90;;;;;;5112042;28;20688;-74
2022/07/20 07:11:53;;;;;;;7.25;4.68;;;19.30;99.90;;;;;;5111430;28;20281;-74
2022/07/20 07:14:20;;;;;;;6.35;4.18;;;19.20;99.90;;;;;;5112154;28;20233;-74
2022/07/20 07:16:47;;;;;;;11.73;4.47;;;19.40;99.90;;;;;;5112239;28;20266;-74
2022/07/20 07:19:15;;;;;;;7.25;4.22;;;19.50;99.90;;;;;;5112111;28;20235;-74
2022/07/20 07:21:43;;;;;;;6.93;3.95;;;19.70;99.90;;;;;;5112292;28;20228;-74
2022/07/20 07:24:10;;;;;;;6.30;4.20;;;19.90;99.90;;;;;;5112042;28;20233;-74
2022/07/20 07:26:37;;;;;;;8.63;4.18;;;20.30;99.90;;;;;;5112204;28;20623;-74
2022/07/20 07:29:04;;;;;;;9.02;4.55;;;20.50;99.90;;;;;;5110202;28;20221;-73
2022/07/20 07:31:31;;;;;;;8.70;3.95;;;21.20;99.90;;;;;;5111411;28;20190;-74
2022/07/20 07:33:58;;;;;;;6.18;4.00;;;21.30;99.90;;;;;;5111579;28;20699;-73
2022/07/20 07:36:25;;;;;;;6.28;3.40;;;21.40;99.90;;;;;;5111272;28;20769;-73
2022/07/20 07:38:53;;;;;;;5.90;3.85;;;21.30;99.90;;;;;;5112308;28;20202;-73
2022/07/20 07:41:21;;;;;;;9.45;3.78;;;21.30;99.90;;;;;;5111342;28;20241;-73
2022/07/20 07:43:48;;;;;;;7.68;3.42;;;21.00;99.90;;;;;;5112444;28;20239;-73
2022/07/20 07:46:15;;;;;;;5.30;3.60;;;21.00;99.90;;;;;;5112502;28;20280;-73
2022/07/20 07:48:42;;;;;;;5.70;3.28;;;21.00;99.90;;;;;;5111546;28;20240;-73
2022/07/20 07:51:09;;;;;;;6.38;3.45;;;21.30;99.90;;;;;;4751081;27;10000528;-73
2022/07/20 07:53:36;;;;;;;7.75;3.40;;;21.60;99.90;;;;;;5107377;28;20611;-73
2022/07/20 07:56:05;;;;;;;9.52;3.55;;;21.80;99.90;;;;;;5108377;28;20271;-73
2022/07/20 07:58:32;;;;;;;5.38;3.60;;;21.60;99.90;;;;;;5110021;28;20198;-73
2022/07/20 08:00:59;;;;;;;8.20;3.92;;;21.50;99.90;;;;;;5113935;28;20225;-73
2022/07/20 08:03:26;;;;;;;7.30;3.60;;;21.20;99.90;;;;;;5112007;28;20238;-74
2022/07/20 08:05:53;;;;;;;6.18;3.30;;;21.30;99.90;;;;;;5111755;28;20268;-74
2022/07/20 08:08:20;;;;;;;7.10;3.78;;;21.40;99.90;;;;;;5111360;28;20190;-74
2022/07/20 08:10:47;;;;;;;8.15;3.90;;;21.60;99.90;;;;;;5111254;28;20352;-75
2022/07/20 08:13:15;;;;;;;7.90;3.80;;;22.50;99.90;;;;;;5111569;28;20225;-74
2022/07/20 08:15:42;;;;;;;7.35;2.92;;;24.60;99.90;;;;;;5111769;28;20217;-75
2022/07/20 08:18:09;;;;;;;8.25;3.15;;;24.60;99.90;;;;;;5108805;28;20247;-76
2022/07/20 08:20:48;;;;;;;4.47;3.17;;;23.80;99.90;;;;;;5107741;28;20225;-76
2022/07/20 08:23:18;;;;;;;7.35;3.45;;;23.10;99.90;;;;;;5110331;28;20975;-76
2022/07/20 08:25:45;;;;;;;8.35;3.47;;;22.70;99.90;;;;;;5106256;28;20229;-76
2022/07/20 08:28:16;;;;;;;5.47;3.47;;;22.30;99.90;;;;;;5110556;28;20206;-77
2022/07/20 08:33:54;;;;;;;8.35;3.72;;;21.80;99.90;;;;;;5105410;28;20190;-76
2022/07/20 08:36:21;;;;;;;10.63;4.30;;;21.80;99.90;;;;;;5112478;27;20221;-76
2022/07/20 08:38:51;;;;;;;8.30;3.78;;;21.90;99.90;;;;;;5106837;28;20296;-76
2022/07/20 08:41:18;;;;;;;8.38;3.78;;;22.20;99.90;;;;;;5109043;28;20213;-76
2022/07/20 08:43:46;;;;;;;10.85;4.22;;;22.20;99.90;;;;;;5109828;28;20194;-76
2022/07/20 08:46:13;;;;;;;11.95;4.00;;;22.10;99.90;;;;;;5108022;28;20285;-76
2022/07/20 08:48:42;;;;;;;6.68;3.60;;;22.20;99.90;;;;;;5104114;28;21186;-76
2022/07/20 08:51:10;;;;;;;6.07;3.60;;;21.80;99.90;;;;;;5110775;28;20229;-76
2022/07/20 08:53:37;;;;;;;7.95;2.97;;;21.60;99.90;;;;;;5113260;28;20632;-76
2022/07/20 08:56:05;;;;;;;6.72;2.92;;;21.80;99.90;;;;;;5113751;28;20221;-76
2022/07/20 08:58:32;;;;;;;4.75;2.58;;;22.50;99.90;;;;;;5110403;28;20247;-76
2022/07/20 09:01:01;;;;;;;6.40;2.72;;;22.90;99.90;;;;;;5111206;27;20232;-73
2022/07/20 09:03:30;;;;;;;8.90;3.35;;;23.00;99.90;;;;;;5112954;28;20258;-72
2022/07/20 09:06:06;;;;;;;5.47;3.00;;;23.20;99.90;;;;;;5110877;28;20663;-72
2022/07/20 09:08:36;;;;;;;5.28;2.90;;;23.60;99.90;;;;;;5109885;28;20248;-75
2022/07/20 09:11:06;;;;;;;6.63;2.70;;;23.30;99.90;;;;;;5113872;28;20258;-77
2022/07/20 09:13:36;;;;;;;5.25;2.45;;;23.50;99.90;;;;;;5114431;28;20244;-77
2022/07/20 09:16:04;;;;;;;6.38;2.45;;;23.60;99.90;;;;;;5106113;28;20214;-77
2022/07/20 09:18:33;;;;;;;5.93;2.95;;;23.90;99.90;;;;;;5113833;28;20213;-76
2022/07/20 09:21:02;;;;;;;5.50;2.95;;;24.40;99.90;;;;;;5113689;28;20255;-76
2022/07/20 09:23:31;;;;;;;3.70;2.25;;;24.80;99.90;;;;;;5113623;28;20230;-76
2022/07/20 09:26:04;;;;;;;3.97;2.33;;;24.90;99.90;;;;;;5113478;28;20202;-77
2022/07/20 09:28:39;;;;;;;5.93;2.10;;;24.90;99.90;;;;;;5113566;28;20271;-76
2022/07/20 09:31:16;;;;;;;5.03;2.30;;;24.90;99.90;;;;;;5112491;28;20197;-76
2022/07/20 09:33:49;;;;;;;5.78;2.08;;;27.00;99.90;;;;;;5113315;27;20193;-76
2022/07/20 09:36:17;;;;;;;4.32;2.10;;;28.40;99.90;;;;;;5113152;28;20701;-76
2022/07/20 09:38:44;;;;;;;4.25;2.10;;;29.40;99.90;;;;;;5114206;27;20229;-76
2022/07/20 09:41:23;;;;;;;4.57;1.83;;;30.30;99.90;;;;;;5114541;28;20229;-76
2022/07/20 09:43:50;;;;;;;3.83;1.85;;;29.10;99.90;;;;;;5108236;28;20266;-76
2022/07/20 09:46:21;;;;;;;2.72;1.90;;;27.70;99.90;;;;;;5112622;28;20689;-76
2022/07/20 09:48:49;;;;;;;2.97;1.80;;;28.20;99.90;;;;;;5112051;27;20206;-75
2022/07/20 09:51:27;;;;;;;3.70;1.70;;;30.10;99.90;;;;;;5112591;27;20261;-76
2022/07/20 09:53:56;;;;;;;3.20;1.85;;;31.20;99.90;;;;;;5113727;28;20236;-75
2022/07/20 09:56:24;;;;;;;4.20;1.92;;;30.60;99.90;;;;;;5114112;28;20302;-75
2022/07/20 09:58:53;;;;;;;4.43;1.90;;;29.10;99.90;;;;;;5110059;28;20230;-75
2022/07/20 10:01:23;;;;;;;3.80;1.67;;;28.50;99.90;;;;;;5119694;27;20205;-76
2022/07/20 10:03:52;;;;;;;5.25;1.90;;;29.10;99.90;;;;;;5114011;28;20204;-76
2022/07/20 10:06:20;;;;;;;3.88;1.90;;;29.80;99.90;;;;;;5114207;28;20190;-76
2022/07/20 10:08:49;;;;;;;9.43;2.10;;;29.10;99.90;;;;;;5114251;28;20229;-75
2022/07/20 10:11:17;;;;;;;3.65;1.73;;;29.10;99.90;;;;;;5113039;28;20276;-76
2022/07/20 10:13:48;;;;;;;3.72;2.00;;;28.80;99.90;;;;;;5113226;28;20285;-76
2022/07/20 10:16:23;;;;;;;2.95;2.10;;;27.30;99.90;;;;;;5113632;28;20259;-73
2022/07/20 10:18:54;;;;;;;6.95;2.83;;;25.80;99.90;;;;;;5114655;27;20662;-73
2022/07/20 10:21:39;;;;;;;2.88;2.45;;;24.80;99.90;;;;;;5115476;27;20714;-72
2022/07/20 10:24:22;;;;;;;3.53;2.20;;;24.50;99.90;;;;;;5113830;27;20655;-72
2022/07/20 10:26:51;;;;;;;2.70;1.92;;;24.70;99.90;;;;;;5112086;27;20233;-72
2022/07/20 10:29:30;;;;;;;2.72;1.90;;;26.20;99.90;;;;;;5111932;27;20288;-72
2022/07/20 10:32:00;;;;;;;4.22;1.40;;;28.40;99.90;;;;;;5112557;27;20201;-72
2022/07/20 10:34:41;;;;;;;2.70;1.20;;;30.90;99.90;;;;;;5113068;27;20254;-73
2022/07/20 10:37:25;;;;;;;6.63;1.75;;;32.60;99.90;;;;;;5116979;27;20735;-73
2022/07/20 10:39:53;;;;;;;4.82;1.23;;;32.80;99.90;;;;;;5111966;27;20239;-72
2022/07/20 10:42:24;;;;;;;3.13;1.40;;;32.80;99.90;;;;;;5113943;27;20284;-73
2022/07/20 10:44:52;;;;;;;3.03;1.40;;;32.70;99.90;;;;;;5116899;27;20243;-72
2022/07/20 10:47:40;;;;;;;2.15;1.30;;;33.00;99.90;;;;;;5113437;27;20233;-73
2022/07/20 10:50:11;;;;;;;4.68;1.40;;;33.60;99.90;;;;;;5105926;28;20656;-73
2022/07/20 10:52:38;;;;;;;2.58;1.20;;;34.40;99.90;;;;;;5111800;28;20356;-74
2022/07/20 10:55:06;;;;;;;3.25;1.50;;;33.60;99.90;;;;;;5108121;28;20241;-73
2022/07/20 10:57:36;;;;;;;10.82;1.50;;;34.00;99.90;;;;;;5109640;28;20226;-73
2022/07/20 11:00:14;;;;;;;5.60;1.60;;;32.60;99.90;;;;;;5109619;27;20212;-73
2022/07/20 11:02:41;;;;;;;2.63;1.30;;;30.80;99.90;;;;;;5108539;28;20201;-73
2022/07/20 11:05:21;;;;;;;4.50;1.40;;;29.50;99.90;;;;;;5111296;28;20233;-73
2022/07/20 11:07:48;;;;;;;7.07;2.30;;;30.60;99.90;;;;;;5111233;28;20208;-73
2022/07/20 11:10:24;;;;;;;5.20;1.70;;;29.00;99.90;;;;;;5110490;28;20198;-73
2022/07/20 11:12:56;;;;;;;2.55;1.48;;;28.00;99.90;;;;;;5110183;28;20760;-73
2022/07/20 11:15:24;;;;;;;1.75;1.25;;;28.10;99.90;;;;;;5105107;28;20277;-73
2022/07/20 11:17:55;;;;;;;2.10;1.20;;;29.90;99.90;;;;;;5111155;28;20217;-73
2022/07/20 11:20:24;;;;;;;1.70;1.40;;;31.30;99.90;;;;;;5111522;28;20208;-73
2022/07/20 11:22:51;;;;;;;6.88;1.52;;;31.50;99.90;;;;;;5108469;28;20229;-73
2022/07/20 11:25:18;;;;;;;4.72;1.35;;;32.80;95.50;;;;;;5111875;28;20251;-73
2022/07/20 11:28:00;;;;;;;2.80;1.00;;;33.90;62.80;;;;;;5110773;28;20284;-73
2022/07/20 11:30:34;;;;;;;1.58;1.00;;;33.40;43.40;;;;;;5109087;28;20203;-73
2022/07/20 11:33:01;;;;;;;1.15;0.90;;;33.60;45.70;;;;;;5111325;27;20229;-73
2022/07/20 11:35:29;;;;;;;2.03;1.00;;;33.80;33.20;;;;;;5111450;27;20447;-73
2022/07/20 11:37:56;;;;;;;7.55;1.30;;;34.30;44.60;;;;;;5110960;27;20256;-73
2022/07/20 11:40:24;;;;;;;3.65;1.02;;;34.30;29.30;;;;;;5108805;27;20288;-73
2022/07/20 11:43:06;;;;;;;3.38;1.20;;;33.70;34.30;;;;;;5108945;27;20267;-74
2022/07/20 11:45:33;;;;;;;2.30;0.85;;;33.70;34.00;;;;;;5104524;28;20197;-73
2022/07/20 11:48:03;;;;;;;1.95;1.10;;;33.40;27.40;;;;;;5111993;27;20284;-73
2022/07/20 11:50:34;;;;;;;2.25;1.10;;;33.80;27.70;;;;;;5112187;27;20225;-73
2022/07/20 11:53:01;;;;;;;2.58;1.08;;;33.80;18.80;;;;;;5109754;27;20233;-74
2022/07/20 11:55:36;;;;;;;1.85;1.02;;;33.80;23.40;;;;;;5113564;28;20284;-73
2022/07/20 11:58:03;;;;;;;3.53;1.00;;;34.40;8.90;;;;;;5112673;28;20307;-73
2022/07/20 12:00:30;;;;;;;2.22;1.10;;;34.20;12.20;;;;;;5113625;27;20276;-73
2022/07/20 12:02:58;;;;;;;2.65;1.20;;;32.60;28.00;;;;;;5109747;28;20277;-73
2022/07/20 12:05:25;;;;;;;2.83;1.15;;;30.80;56.40;;;;;;5116452;28;20235;-73
2022/07/20 12:08:11;;;;;;;4.75;1.45;;;29.60;90.40;;;;;;5108506;28;20194;-73
2022/07/20 12:10:38;;;;;;;3.53;1.58;;;30.60;82.20;;;;;;5113057;28;20629;-73
2022/07/20 12:13:06;;;;;;;2.88;1.30;;;31.90;69.10;;;;;;5120783;28;20221;-73
2022/07/20 12:15:33;;;;;;;1.88;1.35;;;32.50;57.30;;;;;;5109227;28;20201;-73
2022/07/20 12:18:00;;;;;;;4.72;1.40;;;31.80;66.90;;;;;;5112003;27;20323;-73
2022/07/20 12:20:28;;;;;;;2.80;1.50;;;30.70;75.30;;;;;;5113811;27;20233;-73
2022/07/20 12:22:58;;;;;;;3.22;1.60;;;32.20;66.70;;;;;;5113751;28;20250;-73
2022/07/20 12:25:37;;;;;;;2.72;1.45;;;33.40;42.10;;;;;;5113717;27;20233;-73
2022/07/20 12:28:04;;;;;;;2.22;1.58;;;34.20;26.50;;;;;;5113705;27;20208;-73
2022/07/20 12:30:34;;;;;;;3.70;1.90;;;35.30;10.70;;;;;;5115880;27;20206;-73
2022/07/20 12:33:06;;;;;;;4.22;1.80;;;35.00;1.00;;;;;;5115310;27;20860;-73
2022/07/20 12:35:34;;;;;;;3.83;1.90;;;32.50;25.70;;;;;;5113887;27;20225;-73
2022/07/20 12:38:02;;;;;;;4.25;2.20;;;30.80;55.80;;;;;;5111855;27;21669;-73
2022/07/20 12:40:36;;;;;;;6.90;2.33;;;30.10;76.10;;;;;;5115329;27;20285;-73
2022/07/20 12:43:04;;;;;;;2.53;1.90;;;29.70;86.50;;;;;;5116386;27;20200;-73
2022/07/20 12:45:32;;;;;;;2.95;2.22;;;31.00;69.30;;;;;;5113348;27;20285;-72
2022/07/20 12:47:59;;;;;;;4.00;2.47;;;31.40;52.90;;;;;;5114419;27;20272;-73
2022/07/20 12:50:26;;;;;;;3.80;2.22;;;31.40;53.10;;;;;;5114212;27;20308;-74
2022/07/20 12:52:52;;;;;;;3.95;2.55;;;30.70;51.70;;;;;;5113162;27;20276;-72
2022/07/20 12:55:21;;;;;;;3.15;2.35;;;29.40;67.80;;;;;;5112361;28;20221;-73